Time;durP1;ratioP1;P1;durP2;ratioP2;P2;SDS_P1;SDS_P2;PMS_P1;PMS_P2;Temp;Humidity;BMP_temperature;BMP_pressure;BME280_temperature;BME280_humidity;BME280_pressure;Samples;Min_cycle;Max_cycle;Signal;HPM_P1;HPM_P2
2023/08/03 00:01:07;;;;;;;1.05;0.95;;;17.20;99.90;;;;;;4981980;28;20235;-89
2023/08/03 00:03:36;;;;;;;0.93;0.80;;;17.00;99.90;;;;;;4981805;28;20257;-86
2023/08/03 00:06:03;;;;;;;0.80;0.80;;;17.00;99.90;;;;;;5010984;28;20230;-89
2023/08/03 00:08:30;;;;;;;1.00;1.00;;;17.00;99.90;;;;;;5025196;28;20198;-86
2023/08/03 00:11:00;;;;;;;1.25;0.90;;;17.00;99.90;;;;;;5018774;28;20224;-89
2023/08/03 00:13:27;;;;;;;2.08;0.90;;;17.00;99.90;;;;;;5018605;28;20719;-88
2023/08/03 00:15:54;;;;;;;1.05;0.93;;;17.00;99.90;;;;;;5011739;28;20322;-88
2023/08/03 00:18:33;;;;;;;0.70;0.70;;;16.90;99.90;;;;;;5007852;28;20439;-89
2023/08/03 00:20:59;;;;;;;0.60;0.60;;;16.90;99.90;;;;;;5013880;28;20579;-89
2023/08/03 00:23:26;;;;;;;0.80;0.75;;;16.90;99.90;;;;;;5003975;28;20230;-89
2023/08/03 00:25:53;;;;;;;1.75;0.80;;;17.00;99.90;;;;;;5011560;28;20198;-88
2023/08/03 00:28:23;;;;;;;0.82;0.50;;;16.90;99.90;;;;;;5011989;28;20687;-88
2023/08/03 00:30:50;;;;;;;0.80;0.73;;;16.80;99.90;;;;;;5012059;28;20199;-90
2023/08/03 00:33:17;;;;;;;0.80;0.60;;;16.80;99.90;;;;;;5013915;28;20206;-88
2023/08/03 00:35:44;;;;;;;0.90;0.75;;;16.80;99.90;;;;;;5019475;28;20214;-89
2023/08/03 00:38:11;;;;;;;0.73;0.73;;;16.80;99.90;;;;;;5014295;28;20207;-88
2023/08/03 00:40:38;;;;;;;1.15;0.80;;;16.80;99.90;;;;;;5006587;28;20214;-89
2023/08/03 00:43:05;;;;;;;1.10;0.93;;;16.70;99.90;;;;;;5011879;28;20234;-89
2023/08/03 00:45:32;;;;;;;2.33;1.20;;;16.80;99.90;;;;;;5012224;28;20588;-88
2023/08/03 00:47:59;;;;;;;1.33;1.23;;;16.80;99.90;;;;;;5012289;28;20317;-89
2023/08/03 00:50:26;;;;;;;1.50;1.40;;;16.80;99.90;;;;;;5013732;28;20202;-89
2023/08/03 00:52:53;;;;;;;2.28;1.63;;;16.90;99.90;;;;;;5012810;28;20221;-88
2023/08/03 00:55:20;;;;;;;5.53;1.98;;;16.80;99.90;;;;;;5009518;28;20199;-88
2023/08/03 00:57:47;;;;;;;5.65;2.42;;;16.80;99.90;;;;;;5011173;28;20581;-87
2023/08/03 01:00:14;;;;;;;2.60;2.40;;;16.70;99.90;;;;;;5011163;28;20201;-88
2023/08/03 01:02:43;;;;;;;4.85;2.53;;;16.70;99.90;;;;;;5013728;28;20226;-89
2023/08/03 01:05:11;;;;;;;4.60;2.75;;;16.80;99.90;;;;;;5002502;28;20230;-89
2023/08/03 01:07:38;;;;;;;3.65;2.95;;;16.80;99.90;;;;;;4993854;28;20223;-89
2023/08/03 01:10:05;;;;;;;6.18;3.55;;;16.90;99.90;;;;;;4995468;28;20210;-89
2023/08/03 01:12:32;;;;;;;6.07;3.53;;;16.90;99.90;;;;;;4995969;28;20231;-91
2023/08/03 01:14:59;;;;;;;7.50;3.65;;;16.90;99.90;;;;;;4992247;28;20215;-88
2023/08/03 01:17:27;;;;;;;7.90;3.40;;;16.90;99.90;;;;;;4994842;28;20211;-88
2023/08/03 01:19:54;;;;;;;4.82;3.13;;;16.90;99.90;;;;;;5014209;28;20211;-90
2023/08/03 01:22:22;;;;;;;5.20;3.75;;;17.00;99.90;;;;;;5012973;28;20229;-89
2023/08/03 01:24:49;;;;;;;5.20;3.10;;;17.00;99.90;;;;;;4995539;28;20191;-90
2023/08/03 01:27:16;;;;;;;5.20;3.65;;;17.00;99.90;;;;;;4997574;28;20212;-89
2023/08/03 01:29:43;;;;;;;4.78;3.33;;;17.00;99.90;;;;;;5002067;28;20199;-88
2023/08/03 01:32:10;;;;;;;4.85;3.97;;;17.00;99.90;;;;;;5017627;28;20317;-90
2023/08/03 01:34:38;;;;;;;5.40;3.97;;;16.90;99.90;;;;;;4997034;28;20215;-89
2023/08/03 01:37:07;;;;;;;4.90;3.42;;;17.00;99.90;;;;;;5001459;28;20663;-90
2023/08/03 01:39:34;;;;;;;4.85;2.92;;;17.00;99.90;;;;;;4994023;28;20648;-89
2023/08/03 01:42:14;;;;;;;5.55;3.10;;;17.00;99.90;;;;;;4999344;28;20230;-90
2023/08/03 01:44:45;;;;;;;3.53;2.78;;;17.00;99.90;;;;;;4991978;28;20540;-92
2023/08/03 01:47:12;;;;;;;6.05;2.90;;;17.00;99.90;;;;;;5002858;28;20202;-91
2023/08/03 01:49:39;;;;;;;5.38;3.33;;;17.00;99.90;;;;;;4995485;28;20611;-89
2023/08/03 01:52:08;;;;;;;4.63;3.50;;;17.10;99.90;;;;;;4999247;28;20774;-92
2023/08/03 01:54:35;;;;;;;6.25;3.58;;;17.10;99.90;;;;;;5001126;28;20218;-91
2023/08/03 01:57:03;;;;;;;4.43;3.38;;;17.00;99.90;;;;;;4998783;28;20282;-88
2023/08/03 01:59:30;;;;;;;7.38;3.88;;;17.00;99.90;;;;;;5015783;28;20624;-89
2023/08/03 02:01:56;;;;;;;4.55;3.25;;;17.10;99.90;;;;;;4999957;28;20230;-91
2023/08/03 02:04:25;;;;;;;8.23;4.43;;;17.00;99.90;;;;;;5014766;28;20798;-90
2023/08/03 02:06:57;;;;;;;7.43;4.45;;;17.10;99.90;;;;;;4997134;28;20298;-88
2023/08/03 02:09:24;;;;;;;6.65;4.80;;;17.10;99.90;;;;;;4997438;28;20502;-88
2023/08/03 02:11:51;;;;;;;9.05;4.78;;;17.10;99.90;;;;;;5015862;28;20226;-91
2023/08/03 02:14:18;;;;;;;8.18;4.30;;;17.10;99.90;;;;;;4997150;28;20241;-90
2023/08/03 02:16:45;;;;;;;6.30;3.50;;;17.10;99.90;;;;;;4994702;28;20222;-90
2023/08/03 02:19:14;;;;;;;4.47;2.97;;;17.10;99.90;;;;;;5010903;28;20211;-90
2023/08/03 02:21:42;;;;;;;4.32;2.42;;;17.10;99.90;;;;;;5018011;28;20214;-88
2023/08/03 02:24:12;;;;;;;2.65;2.10;;;17.10;99.90;;;;;;5017807;28;20305;-85
2023/08/03 02:26:39;;;;;;;3.45;1.70;;;17.00;99.90;;;;;;5017448;28;20272;-88
2023/08/03 02:29:06;;;;;;;5.03;1.63;;;17.00;99.90;;;;;;5005708;28;20234;-86
2023/08/03 02:31:32;;;;;;;1.98;1.67;;;17.00;99.90;;;;;;4996012;28;20379;-86
2023/08/03 02:33:59;;;;;;;2.03;1.40;;;16.90;99.90;;;;;;5010919;28;20214;-84
2023/08/03 02:36:26;;;;;;;1.95;1.25;;;16.90;99.90;;;;;;4994163;28;20348;-87
2023/08/03 02:38:53;;;;;;;3.58;1.65;;;16.80;99.90;;;;;;4992668;28;20225;-86
2023/08/03 02:41:20;;;;;;;5.03;1.90;;;16.80;99.90;;;;;;4992798;28;20210;-84
2023/08/03 02:43:46;;;;;;;4.60;2.30;;;16.90;99.90;;;;;;5006857;28;20725;-89
2023/08/03 02:46:13;;;;;;;6.40;3.45;;;16.80;99.90;;;;;;5011432;28;20211;-87
2023/08/03 02:48:40;;;;;;;8.32;4.05;;;16.80;99.90;;;;;;4993030;28;20629;-88
2023/08/03 02:51:07;;;;;;;10.30;5.40;;;16.90;99.90;;;;;;4994221;28;20233;-87
2023/08/03 02:53:34;;;;;;;10.48;5.93;;;16.90;99.90;;;;;;4995403;28;20214;-89
2023/08/03 02:56:01;;;;;;;8.73;6.22;;;16.90;99.90;;;;;;5001230;28;20268;-87
2023/08/03 02:58:28;;;;;;;13.00;7.07;;;16.90;99.90;;;;;;5006210;28;20228;-90
2023/08/03 03:00:54;;;;;;;9.82;5.63;;;17.00;99.90;;;;;;5001324;28;20305;-88
2023/08/03 03:03:21;;;;;;;10.73;6.80;;;17.00;99.90;;;;;;5003138;28;20234;-90
2023/08/03 03:05:48;;;;;;;12.57;6.57;;;16.90;99.90;;;;;;4999605;28;20235;-90
2023/08/03 03:08:16;;;;;;;12.18;6.85;;;17.00;99.90;;;;;;5016925;28;20210;-90
2023/08/03 03:10:43;;;;;;;9.98;6.63;;;17.00;99.90;;;;;;5014539;28;20213;-89
2023/08/03 03:13:10;;;;;;;14.98;7.03;;;17.00;99.90;;;;;;5013221;28;20702;-89
2023/08/03 03:15:37;;;;;;;12.15;7.13;;;17.00;99.90;;;;;;5002080;28;20497;-90
2023/08/03 03:18:04;;;;;;;12.88;7.20;;;17.00;99.90;;;;;;5011818;28;20209;-90
2023/08/03 03:20:31;;;;;;;16.27;7.70;;;17.10;99.90;;;;;;5009215;28;20214;-89
2023/08/03 03:22:59;;;;;;;12.20;7.70;;;17.10;99.90;;;;;;5008831;28;20236;-90
2023/08/03 03:25:26;;;;;;;13.63;7.68;;;17.10;99.90;;;;;;5007094;28;20207;-89
2023/08/03 03:27:53;;;;;;;12.98;7.13;;;17.10;99.90;;;;;;5010338;28;20231;-88
2023/08/03 03:30:20;;;;;;;14.68;7.47;;;17.10;99.90;;;;;;5013355;28;20213;-88
2023/08/03 03:32:47;;;;;;;13.90;7.38;;;17.20;99.90;;;;;;5016428;28;20226;-88
2023/08/03 03:35:16;;;;;;;14.00;6.53;;;17.30;99.90;;;;;;5007609;28;20203;-90
2023/08/03 03:37:43;;;;;;;11.75;7.15;;;17.20;99.90;;;;;;5008883;28;20261;-89
2023/08/03 03:40:12;;;;;;;8.57;6.10;;;17.20;99.90;;;;;;5013520;28;20661;-91
2023/08/03 03:42:39;;;;;;;10.70;5.50;;;17.20;99.90;;;;;;5003124;28;20822;-93
2023/08/03 03:45:07;;;;;;;6.97;4.90;;;17.30;99.90;;;;;;5009624;28;20224;-93
2023/08/03 03:47:34;;;;;;;8.30;5.03;;;17.30;99.90;;;;;;5013805;28;20277;-89
2023/08/03 03:50:01;;;;;;;7.97;4.60;;;17.30;99.90;;;;;;5012646;28;20222;-90
2023/08/03 03:52:28;;;;;;;8.02;4.60;;;17.30;99.90;;;;;;5018156;28;20207;-90
2023/08/03 03:54:55;;;;;;;10.70;4.30;;;17.20;99.90;;;;;;5013496;28;20206;-89
2023/08/03 03:57:23;;;;;;;10.38;4.80;;;17.30;99.90;;;;;;5015843;28;20222;-90
2023/08/03 03:59:50;;;;;;;7.85;4.47;;;17.20;99.90;;;;;;5010460;28;20513;-91
2023/08/03 04:02:17;;;;;;;8.55;4.70;;;17.10;99.90;;;;;;5019252;28;20229;-91
2023/08/03 04:04:44;;;;;;;6.93;4.13;;;17.20;99.90;;;;;;5021308;28;20220;-88
2023/08/03 04:07:13;;;;;;;6.30;4.07;;;17.10;99.90;;;;;;5003629;28;20210;-90
2023/08/03 04:09:41;;;;;;;11.52;4.03;;;17.10;99.90;;;;;;5000475;28;20640;-90
2023/08/03 04:12:11;;;;;;;8.63;4.20;;;17.10;99.90;;;;;;4984322;28;20219;-89
2023/08/03 04:14:38;;;;;;;9.05;4.13;;;17.10;99.90;;;;;;4994809;28;20206;-89
2023/08/03 04:17:05;;;;;;;9.93;4.07;;;17.10;99.90;;;;;;5006401;28;20209;-91
2023/08/03 04:19:33;;;;;;;6.88;4.30;;;17.10;99.90;;;;;;5008009;28;20238;-91
2023/08/03 04:22:03;;;;;;;6.32;4.25;;;17.10;99.90;;;;;;5007422;28;20227;-89
2023/08/03 04:24:38;;;;;;;8.23;4.60;;;17.10;99.90;;;;;;5011135;28;20234;-89
2023/08/03 04:27:14;;;;;;;8.57;4.65;;;17.20;99.90;;;;;;4990945;28;20230;-90
2023/08/03 04:29:41;;;;;;;7.38;4.28;;;17.20;99.90;;;;;;5001391;28;20222;-90
2023/08/03 04:32:09;;;;;;;8.70;5.00;;;17.20;99.90;;;;;;5007993;28;20213;-89
2023/08/03 04:34:38;;;;;;;8.75;4.63;;;17.20;99.90;;;;;;5005705;28;20572;-91
2023/08/03 04:37:08;;;;;;;9.52;4.78;;;17.20;99.90;;;;;;5007816;28;20214;-92
2023/08/03 04:39:44;;;;;;;8.43;5.20;;;17.20;99.90;;;;;;5011924;28;20219;-89
2023/08/03 04:42:11;;;;;;;10.85;4.80;;;17.20;99.90;;;;;;5008360;28;20210;-90
2023/08/03 04:44:38;;;;;;;7.43;4.95;;;17.30;99.90;;;;;;5008002;28;20226;-92
2023/08/03 04:47:05;;;;;;;10.32;5.18;;;17.30;99.90;;;;;;5010561;28;20211;-91
2023/08/03 04:49:33;;;;;;;7.65;4.22;;;17.40;99.90;;;;;;5029511;28;20238;-89
2023/08/03 04:52:02;;;;;;;6.13;4.03;;;17.40;99.90;;;;;;5015174;28;20212;-89
2023/08/03 04:54:29;;;;;;;6.40;4.10;;;17.50;99.90;;;;;;5014294;28;20190;-88
2023/08/03 04:56:59;;;;;;;6.82;4.63;;;17.50;99.90;;;;;;5021475;28;20237;-89
2023/08/03 04:59:32;;;;;;;8.38;4.80;;;17.50;99.90;;;;;;5015021;28;20277;-87
2023/08/03 05:02:03;;;;;;;7.32;4.53;;;17.50;99.90;;;;;;5014706;28;20205;-89
2023/08/03 05:04:34;;;;;;;7.65;4.57;;;17.30;99.90;;;;;;5014212;28;20234;-89
2023/08/03 05:07:11;;;;;;;5.53;4.57;;;17.60;99.90;;;;;;5027771;28;20313;-91
2023/08/03 05:09:38;;;;;;;7.90;4.65;;;17.60;99.90;;;;;;5027625;28;20214;-88
2023/08/03 05:12:15;;;;;;;7.45;4.85;;;17.80;99.90;;;;;;5013217;28;20245;-88
2023/08/03 05:14:42;;;;;;;8.95;4.22;;;17.80;99.90;;;;;;5004393;28;20245;-89
2023/08/03 05:17:10;;;;;;;6.38;4.15;;;17.80;99.90;;;;;;4996797;28;20218;-88
2023/08/03 05:19:41;;;;;;;5.13;3.78;;;17.90;99.90;;;;;;4981928;28;20201;-91
2023/08/03 05:22:09;;;;;;;7.13;3.75;;;17.90;99.90;;;;;;5001582;28;20217;-89
2023/08/03 05:24:36;;;;;;;5.07;3.72;;;17.90;99.90;;;;;;5000706;28;20305;-92
2023/08/03 05:27:08;;;;;;;5.47;3.50;;;18.00;99.90;;;;;;4999779;28;20214;-92
2023/08/03 05:29:51;;;;;;;3.50;2.78;;;18.00;99.90;;;;;;5001544;28;21471;-90
2023/08/03 05:32:30;;;;;;;2.75;2.45;;;18.00;99.90;;;;;;5002620;28;20225;-89
2023/08/03 05:35:03;;;;;;;4.35;2.10;;;17.90;99.90;;;;;;4999950;28;20598;-88
2023/08/03 05:37:34;;;;;;;3.80;2.13;;;17.90;99.90;;;;;;5006376;28;20197;-90
2023/08/03 05:40:03;;;;;;;4.50;2.15;;;17.80;99.90;;;;;;5002430;28;20198;-90
2023/08/03 05:42:39;;;;;;;3.63;2.35;;;17.70;99.90;;;;;;5021118;28;20210;-84
2023/08/03 05:45:14;;;;;;;2.53;2.13;;;17.60;99.90;;;;;;5020198;28;20210;-90
2023/08/03 05:47:41;;;;;;;5.90;2.72;;;17.70;99.90;;;;;;5022116;28;20581;-89
2023/08/03 05:50:25;;;;;;;;;;;;;;;;;;;;;
2023/08/03 05:52:59;;;;;;;3.92;2.30;;;17.80;99.90;;;;;;5020437;28;20203;-89
2023/08/03 05:55:29;;;;;;;4.43;2.28;;;17.90;99.90;;;;;;5008299;28;20213;-89
2023/08/03 05:58:02;;;;;;;3.67;2.47;;;17.80;99.90;;;;;;5009253;28;20214;-90
2023/08/03 06:00:34;;;;;;;3.78;2.70;;;17.80;99.90;;;;;;5011938;28;20202;-87
2023/08/03 06:03:01;;;;;;;6.60;3.17;;;17.80;99.90;;;;;;5012187;28;20228;-89
2023/08/03 06:05:50;;;;;;;6.72;3.13;;;17.80;99.90;;;;;;5030363;28;20234;-89
2023/08/03 06:08:25;;;;;;;6.07;3.10;;;17.80;99.90;;;;;;4996542;28;20220;-90
2023/08/03 06:11:04;;;;;;;6.47;3.10;;;17.90;99.90;;;;;;5012373;28;20232;-89
2023/08/03 06:13:42;;;;;;;4.50;2.83;;;17.90;99.90;;;;;;5014234;28;20241;-88
2023/08/03 06:16:12;;;;;;;5.65;2.70;;;18.00;99.90;;;;;;5013991;28;20213;-88
2023/08/03 06:18:52;;;;;;;4.72;2.83;;;18.00;99.90;;;;;;4996183;28;20242;-84
2023/08/03 06:21:20;;;;;;;4.05;2.47;;;18.00;99.90;;;;;;5010156;28;20241;-83
2023/08/03 06:23:49;;;;;;;5.97;2.63;;;17.90;99.90;;;;;;5008082;28;20732;-79
2023/08/03 06:26:17;;;;;;;3.08;2.38;;;17.90;99.90;;;;;;5008346;28;20199;-80
2023/08/03 06:28:45;;;;;;;4.53;2.42;;;17.90;99.90;;;;;;4992046;28;20214;-79
2023/08/03 06:31:39;;;;;;;3.20;2.50;;;17.80;99.90;;;;;;5009365;28;20198;-79
2023/08/03 06:34:14;;;;;;;5.38;2.22;;;17.80;99.90;;;;;;5007307;28;20206;-80
2023/08/03 06:36:44;;;;;;;3.88;2.35;;;17.70;99.90;;;;;;5004394;28;20207;-79
2023/08/03 06:39:11;;;;;;;5.18;2.72;;;17.60;99.90;;;;;;5009384;28;20202;-81
2023/08/03 06:41:38;;;;;;;7.32;2.72;;;17.50;99.90;;;;;;5007488;28;20611;-80
2023/08/03 06:44:05;;;;;;;4.43;2.47;;;17.60;99.90;;;;;;5008300;28;20230;-80
2023/08/03 06:46:32;;;;;;;6.60;2.75;;;17.50;99.90;;;;;;5008380;28;20604;-82
2023/08/03 06:48:59;;;;;;;5.97;3.88;;;17.60;99.90;;;;;;5009026;28;20213;-82
2023/08/03 06:51:26;;;;;;;5.50;3.38;;;17.50;99.90;;;;;;5008908;28;20297;-84
2023/08/03 06:53:53;;;;;;;7.10;3.88;;;17.50;99.90;;;;;;5008966;28;20214;-83
2023/08/03 06:56:20;;;;;;;10.15;3.42;;;17.40;99.90;;;;;;5009425;28;20223;-84
2023/08/03 06:58:47;;;;;;;5.43;3.00;;;17.50;99.90;;;;;;4991839;28;20203;-85
2023/08/03 07:01:14;;;;;;;7.20;2.60;;;17.40;99.90;;;;;;5009568;28;20207;-86
2023/08/03 07:03:41;;;;;;;8.82;3.30;;;17.40;99.90;;;;;;5009676;28;20269;-85
2023/08/03 07:06:08;;;;;;;8.27;3.83;;;17.40;99.90;;;;;;5009568;28;20569;-85
2023/08/03 07:08:36;;;;;;;6.20;3.50;;;17.30;99.90;;;;;;4992085;28;20213;-91
2023/08/03 07:11:03;;;;;;;6.47;2.92;;;17.50;99.90;;;;;;4996403;28;20221;-87
2023/08/03 07:13:30;;;;;;;9.25;3.30;;;17.50;99.90;;;;;;4992534;28;20301;-86
2023/08/03 07:16:05;;;;;;;6.65;3.03;;;17.60;99.90;;;;;;4992131;28;20210;-87
2023/08/03 07:18:33;;;;;;;7.60;2.63;;;17.60;99.90;;;;;;4991935;28;20194;-87
2023/08/03 07:21:04;;;;;;;4.55;2.53;;;17.60;99.90;;;;;;4992788;28;20493;-87
2023/08/03 07:23:32;;;;;;;7.80;2.83;;;17.60;99.90;;;;;;4992753;28;20259;-87
2023/08/03 07:25:59;;;;;;;6.95;2.75;;;17.70;99.90;;;;;;5010591;28;20631;-88
2023/08/03 07:28:26;;;;;;;5.57;2.60;;;17.70;99.90;;;;;;4992630;28;20239;-87
2023/08/03 07:30:53;;;;;;;7.45;3.10;;;17.80;99.90;;;;;;4993377;28;20210;-88
2023/08/03 07:33:20;;;;;;;9.32;2.80;;;17.90;99.90;;;;;;5002921;28;20292;-87
2023/08/03 07:35:47;;;;;;;5.47;2.85;;;17.90;99.90;;;;;;5005923;28;20260;-87
2023/08/03 07:38:16;;;;;;;6.95;2.65;;;18.00;99.90;;;;;;5019958;28;20229;-87
2023/08/03 07:40:42;;;;;;;7.15;2.90;;;18.00;99.90;;;;;;5010415;28;20229;-86
2023/08/03 07:43:09;;;;;;;6.00;3.15;;;18.10;99.90;;;;;;4994057;28;20284;-87
2023/08/03 07:45:39;;;;;;;10.13;4.10;;;18.20;99.90;;;;;;5005945;28;20603;-88
2023/08/03 07:48:09;;;;;;;6.28;3.47;;;18.20;99.90;;;;;;4992276;28;20207;-88
2023/08/03 07:50:36;;;;;;;6.80;3.53;;;18.20;99.90;;;;;;4993908;28;20223;-88
2023/08/03 07:53:04;;;;;;;9.15;4.20;;;18.20;99.90;;;;;;4994900;28;20217;-89
2023/08/03 07:55:34;;;;;;;5.97;3.95;;;18.20;99.90;;;;;;4994864;28;20201;-89
2023/08/03 07:58:01;;;;;;;7.18;4.38;;;18.20;99.90;;;;;;4993951;28;20230;-88
2023/08/03 08:00:28;;;;;;;6.65;3.50;;;18.40;99.90;;;;;;5011347;28;20608;-87
2023/08/03 08:02:55;;;;;;;5.15;3.53;;;18.50;99.90;;;;;;5012012;28;20226;-88
2023/08/03 08:05:22;;;;;;;4.60;3.05;;;18.70;99.90;;;;;;4996203;28;20230;-91
2023/08/03 08:07:50;;;;;;;7.05;3.50;;;18.80;99.90;;;;;;5017478;28;20298;-87
2023/08/03 08:10:17;;;;;;;4.05;3.00;;;18.80;99.90;;;;;;5027621;28;20207;-88
2023/08/03 08:12:44;;;;;;;3.47;2.78;;;18.90;99.90;;;;;;5031860;28;20222;-88
2023/08/03 08:15:14;;;;;;;8.38;3.30;;;18.90;99.90;;;;;;5031546;28;20225;-89
2023/08/03 08:17:41;;;;;;;7.28;3.38;;;19.00;99.90;;;;;;5029786;28;20237;-87
2023/08/03 08:20:09;;;;;;;4.72;2.55;;;19.40;99.90;;;;;;5021914;28;20230;-89
2023/08/03 08:22:36;;;;;;;3.83;2.00;;;19.90;99.90;;;;;;5009626;28;20214;-88
2023/08/03 08:25:03;;;;;;;2.08;1.70;;;20.30;99.90;;;;;;5009204;28;20228;-87
2023/08/03 08:27:31;;;;;;;3.08;1.63;;;20.50;99.90;;;;;;5010674;28;20273;-88
2023/08/03 08:30:00;;;;;;;2.47;1.77;;;20.50;99.90;;;;;;5009469;28;20225;-87
2023/08/03 08:32:27;;;;;;;3.72;1.90;;;20.80;99.90;;;;;;5009662;28;20573;-85
2023/08/03 08:34:54;;;;;;;3.78;1.52;;;21.00;99.90;;;;;;5012160;28;20238;-85
2023/08/03 08:37:21;;;;;;;3.75;1.67;;;21.10;99.90;;;;;;5012025;28;20710;-88
2023/08/03 08:39:47;;;;;;;1.42;1.30;;;21.10;99.90;;;;;;5013894;28;20259;-85
2023/08/03 08:42:15;;;;;;;2.42;1.23;;;21.10;99.90;;;;;;5015059;28;20219;-88
2023/08/03 08:44:42;;;;;;;2.25;1.50;;;21.00;99.90;;;;;;5017878;28;20264;-87
2023/08/03 08:47:09;;;;;;;2.17;1.20;;;20.90;99.90;;;;;;5019421;28;20214;-85
2023/08/03 08:49:36;;;;;;;1.52;1.20;;;20.80;99.90;;;;;;5016952;28;20309;-86
2023/08/03 08:52:09;;;;;;;1.73;1.33;;;20.80;99.90;;;;;;5015042;28;20206;-86
2023/08/03 08:54:37;;;;;;;2.50;1.63;;;20.70;99.90;;;;;;5014131;28;20285;-87
2023/08/03 08:57:07;;;;;;;2.25;1.45;;;20.80;99.90;;;;;;5013440;28;20289;-85
2023/08/03 09:00:05;;;;;;;2.90;1.80;;;20.90;99.90;;;;;;5015034;28;20233;-89
2023/08/03 09:02:33;;;;;;;2.22;1.50;;;21.00;99.90;;;;;;5015286;28;20214;-87
2023/08/03 09:05:12;;;;;;;2.92;1.45;;;21.00;99.90;;;;;;5000560;28;20226;-86
2023/08/03 09:07:40;;;;;;;2.78;1.30;;;21.00;99.90;;;;;;5013205;28;20242;-88
2023/08/03 09:10:10;;;;;;;3.85;1.40;;;21.10;99.90;;;;;;5013400;28;20253;-87
2023/08/03 09:12:38;;;;;;;1.88;1.17;;;21.50;99.90;;;;;;4998322;28;20248;-86
2023/08/03 09:15:06;;;;;;;4.30;1.70;;;21.90;99.90;;;;;;5000420;28;20198;-88
2023/08/03 09:17:34;;;;;;;2.30;1.23;;;22.10;99.90;;;;;;4980364;28;20283;-85
2023/08/03 09:20:01;;;;;;;4.57;1.27;;;22.30;99.90;;;;;;5013614;28;20301;-85
2023/08/03 09:22:43;;;;;;;3.63;1.58;;;22.30;99.90;;;;;;4994774;28;20225;-85
2023/08/03 09:25:12;;;;;;;3.03;1.90;;;22.40;99.90;;;;;;4994883;28;20222;-87
2023/08/03 09:27:55;;;;;;;3.78;1.50;;;22.20;99.90;;;;;;4999989;28;20614;-87
2023/08/03 09:30:25;;;;;;;3.42;1.70;;;22.30;99.90;;;;;;5012445;28;20222;-87
2023/08/03 09:33:13;;;;;;;5.03;1.65;;;22.40;99.90;;;;;;4996335;28;20249;-85
2023/08/03 09:36:04;;;;;;;4.35;1.63;;;22.60;99.90;;;;;;5001822;28;20214;-87
2023/08/03 09:38:31;;;;;;;4.50;1.50;;;22.70;99.90;;;;;;4993586;28;20217;-86
2023/08/03 09:40:59;;;;;;;3.63;1.98;;;22.70;99.90;;;;;;5013653;28;20207;-87
2023/08/03 09:43:28;;;;;;;4.95;1.70;;;22.70;99.90;;;;;;4995569;28;20591;-86
2023/08/03 09:45:58;;;;;;;2.97;1.77;;;22.50;99.90;;;;;;4997125;28;20231;-86
2023/08/03 09:48:26;;;;;;;2.85;1.60;;;22.40;99.90;;;;;;5014052;28;20214;-87
2023/08/03 09:50:55;;;;;;;2.97;1.88;;;22.40;99.90;;;;;;4998795;28;20237;-86
2023/08/03 09:53:37;;;;;;;2.47;1.55;;;22.40;99.90;;;;;;4988734;28;20597;-85
2023/08/03 09:56:05;;;;;;;3.03;1.42;;;22.40;99.90;;;;;;5007185;28;20218;-85
2023/08/03 09:58:58;;;;;;;3.58;1.60;;;22.40;99.90;;;;;;5001331;28;20402;-87
2023/08/03 10:01:27;;;;;;;2.47;1.48;;;22.30;99.90;;;;;;4999712;28;20393;-86
2023/08/03 10:04:03;;;;;;;3.40;1.60;;;22.20;99.90;;;;;;5002988;28;20203;-85
2023/08/03 10:06:38;;;;;;;3.67;1.67;;;22.30;99.90;;;;;;5015913;28;20237;-86
2023/08/03 10:09:12;;;;;;;5.10;1.73;;;22.70;99.90;;;;;;5014632;28;20289;-86
2023/08/03 10:11:43;;;;;;;3.15;1.38;;;23.00;99.90;;;;;;4997112;28;20229;-85
2023/08/03 10:14:16;;;;;;;4.45;1.92;;;23.30;99.90;;;;;;4998958;28;20237;-86
2023/08/03 10:16:44;;;;;;;2.90;1.40;;;23.30;99.90;;;;;;4996926;28;20211;-88
2023/08/03 10:19:12;;;;;;;1.60;1.30;;;23.20;99.90;;;;;;4997565;28;20214;-85
2023/08/03 10:21:39;;;;;;;6.43;2.30;;;23.20;99.90;;;;;;4992660;28;20287;-86
2023/08/03 10:24:20;;;;;;;2.50;1.25;;;23.20;99.90;;;;;;5005697;28;20300;-84
2023/08/03 10:26:53;;;;;;;3.40;1.13;;;23.20;99.90;;;;;;4994426;28;20282;-86
2023/08/03 10:29:54;;;;;;;4.30;0.90;;;23.00;99.90;;;;;;4994769;28;20202;-86
2023/08/03 10:32:23;;;;;;;2.72;1.13;;;22.90;99.90;;;;;;4995557;28;20202;-86
2023/08/03 10:34:52;;;;;;;2.17;1.25;;;22.90;99.90;;;;;;5012482;28;20221;-87
2023/08/03 10:37:20;;;;;;;3.50;1.45;;;23.00;99.90;;;;;;5012685;28;20253;-86
2023/08/03 10:39:53;;;;;;;3.85;1.15;;;23.10;99.90;;;;;;4992472;28;20207;-85
2023/08/03 10:42:31;;;;;;;6.13;1.45;;;23.20;99.90;;;;;;4993568;28;20222;-84
2023/08/03 10:45:20;;;;;;;3.10;1.10;;;23.20;99.90;;;;;;4994479;28;20601;-85
2023/08/03 10:47:47;;;;;;;3.88;1.73;;;23.20;99.90;;;;;;5011287;28;20219;-86
2023/08/03 10:50:16;;;;;;;6.82;1.50;;;23.30;99.90;;;;;;4993435;28;20675;-86
2023/08/03 10:52:44;;;;;;;3.95;1.35;;;23.50;99.90;;;;;;4993818;28;20214;-84
2023/08/03 10:55:26;;;;;;;2.70;1.20;;;23.60;99.90;;;;;;5009911;28;20293;-86
2023/08/03 10:57:57;;;;;;;5.38;1.23;;;23.80;99.90;;;;;;4993203;28;20241;-85
2023/08/03 11:00:24;;;;;;;3.50;1.50;;;23.50;99.90;;;;;;5011141;28;20671;-87
2023/08/03 11:02:50;;;;;;;2.97;1.38;;;23.40;99.90;;;;;;4990304;28;20199;-85
2023/08/03 11:05:17;;;;;;;12.65;1.70;;;23.20;99.90;;;;;;5010415;28;20288;-89
2023/08/03 11:07:46;;;;;;;2.97;1.20;;;23.10;99.90;;;;;;5006279;28;20292;-86
2023/08/03 11:10:15;;;;;;;3.28;1.42;;;23.00;99.90;;;;;;5008941;28;20207;-86
2023/08/03 11:12:44;;;;;;;3.97;1.42;;;22.90;99.90;;;;;;5010914;28;20253;-86
2023/08/03 11:15:16;;;;;;;2.97;1.10;;;23.10;99.90;;;;;;4997990;28;20276;-86
2023/08/03 11:17:48;;;;;;;3.00;0.90;;;23.60;99.90;;;;;;5008342;28;20202;-85
2023/08/03 11:20:15;;;;;;;2.53;1.10;;;23.70;99.90;;;;;;5009950;28;20210;-85
2023/08/03 11:22:42;;;;;;;2.10;0.90;;;23.70;99.90;;;;;;5010945;28;20214;-85
2023/08/03 11:25:09;;;;;;;2.17;0.70;;;23.80;99.90;;;;;;5010472;28;20606;-88
2023/08/03 11:27:40;;;;;;;2.55;0.90;;;23.50;99.90;;;;;;5009448;28;20587;-82
2023/08/03 11:30:07;;;;;;;4.03;0.90;;;23.30;99.90;;;;;;5011284;28;20213;-84
2023/08/03 11:32:34;;;;;;;2.20;0.82;;;23.00;99.90;;;;;;5012098;28;20198;-84
2023/08/03 11:35:07;;;;;;;4.20;1.13;;;22.80;99.90;;;;;;5010269;28;20238;-86
2023/08/03 11:37:36;;;;;;;1.42;0.90;;;22.50;99.90;;;;;;5008172;28;20532;-84
2023/08/03 11:40:05;;;;;;;2.42;1.30;;;22.50;99.90;;;;;;5008393;28;20207;-86
2023/08/03 11:42:35;;;;;;;3.35;1.20;;;22.40;99.90;;;;;;4995641;28;20230;-83
2023/08/03 11:45:05;;;;;;;2.15;1.10;;;22.60;99.90;;;;;;4997879;28;20307;-85
2023/08/03 11:47:46;;;;;;;1.55;0.90;;;22.50;99.90;;;;;;5020048;28;20258;-82
2023/08/03 11:50:17;;;;;;;2.08;1.08;;;22.20;99.90;;;;;;4999124;28;20223;-83
2023/08/03 11:52:46;;;;;;;3.17;1.20;;;21.90;99.90;;;;;;5002539;28;20198;-86
2023/08/03 11:55:26;;;;;;;4.10;1.35;;;21.60;99.90;;;;;;5004510;28;20199;-90
2023/08/03 11:58:10;;;;;;;3.28;1.58;;;21.30;99.90;;;;;;4998010;28;20687;-85
2023/08/03 12:00:39;;;;;;;2.58;1.02;;;21.00;99.90;;;;;;5002470;28;20217;-84
2023/08/03 12:03:07;;;;;;;2.28;1.10;;;20.80;99.90;;;;;;5008347;28;20207;-83
2023/08/03 12:05:52;;;;;;;3.25;1.30;;;20.90;99.90;;;;;;5002554;28;20229;-85
2023/08/03 12:08:45;;;;;;;6.38;1.65;;;21.10;99.90;;;;;;5004788;28;20202;-84
2023/08/03 12:11:17;;;;;;;2.22;1.00;;;21.20;99.90;;;;;;4995888;28;20210;-83
2023/08/03 12:13:50;;;;;;;8.23;1.20;;;21.30;99.90;;;;;;4999322;28;20207;-89
2023/08/03 12:16:17;;;;;;;3.63;1.15;;;21.30;99.90;;;;;;5004075;28;20666;-87
2023/08/03 12:18:44;;;;;;;5.20;1.50;;;20.90;99.90;;;;;;5002855;28;20317;-83
2023/08/03 12:21:11;;;;;;;2.15;1.10;;;21.30;99.90;;;;;;5002960;28;20206;-83
2023/08/03 12:23:38;;;;;;;4.40;1.35;;;21.40;99.90;;;;;;5007391;28;20274;-83
2023/08/03 12:26:07;;;;;;;2.83;0.98;;;21.40;99.90;;;;;;5007690;28;20651;-85
2023/08/03 12:28:33;;;;;;;4.13;1.15;;;21.40;99.90;;;;;;4999422;28;20231;-82
2023/08/03 12:31:00;;;;;;;4.30;1.00;;;21.40;99.90;;;;;;5006312;28;20210;-83
2023/08/03 12:33:27;;;;;;;4.18;1.27;;;21.20;99.90;;;;;;5002055;28;20200;-83
2023/08/03 12:35:54;;;;;;;5.35;1.45;;;21.10;99.90;;;;;;5005968;28;20245;-84
2023/08/03 12:38:21;;;;;;;3.05;0.98;;;20.90;99.90;;;;;;5007404;28;20207;-84
2023/08/03 12:40:48;;;;;;;2.97;1.08;;;20.50;99.90;;;;;;5003947;28;20202;-83
2023/08/03 12:43:15;;;;;;;1.85;1.13;;;20.90;99.90;;;;;;5003935;28;20642;-83
2023/08/03 12:45:44;;;;;;;5.25;1.30;;;20.80;99.90;;;;;;4998703;28;20223;-83
2023/08/03 12:48:11;;;;;;;4.13;1.58;;;20.80;99.90;;;;;;5006879;28;20233;-81
2023/08/03 12:50:41;;;;;;;2.83;1.20;;;20.90;99.90;;;;;;5008544;28;20233;-83
2023/08/03 12:53:08;;;;;;;3.28;1.00;;;21.00;99.90;;;;;;5007591;28;20195;-81
2023/08/03 12:55:34;;;;;;;0.80;0.80;;;21.00;99.90;;;;;;5005717;28;20213;-82
2023/08/03 12:58:01;;;;;;;0.63;0.63;;;21.00;99.90;;;;;;5010656;28;20223;-84
2023/08/03 13:00:28;;;;;;;1.40;0.80;;;21.20;99.90;;;;;;5006658;28;20675;-82